sensor_id;sensor_type;location;lat;lon;timestamp;P1;durP1;ratioP1;P2;durP2;ratioP2
77191;SDS011;66172;48.526;8.078;2023-01-08T00:02:23;6.93;;;1.90;;
77191;SDS011;66172;48.526;8.078;2023-01-08T00:04:49;6.30;;;2.17;;
77191;SDS011;66172;48.526;8.078;2023-01-08T00:07:15;5.35;;;1.60;;
77191;SDS011;66172;48.526;8.078;2023-01-08T00:09:41;6.30;;;2.05;;
77191;SDS011;66172;48.526;8.078;2023-01-08T00:12:06;5.55;;;1.98;;
77191;SDS011;66172;48.526;8.078;2023-01-08T00:14:32;5.67;;;1.90;;
77191;SDS011;66172;48.526;8.078;2023-01-08T00:16:58;7.10;;;2.15;;
77191;SDS011;66172;48.526;8.078;2023-01-08T00:19:24;6.00;;;1.63;;
77191;SDS011;66172;48.526;8.078;2023-01-08T00:21:50;5.97;;;1.80;;
77191;SDS011;66172;48.526;8.078;2023-01-08T00:24:16;6.28;;;1.90;;
77191;SDS011;66172;48.526;8.078;2023-01-08T00:26:42;5.00;;;1.60;;
77191;SDS011;66172;48.526;8.078;2023-01-08T00:29:07;5.13;;;1.70;;
77191;SDS011;66172;48.526;8.078;2023-01-08T00:31:33;4.80;;;1.67;;
77191;SDS011;66172;48.526;8.078;2023-01-08T00:33:59;5.47;;;1.40;;
77191;SDS011;66172;48.526;8.078;2023-01-08T00:36:25;6.50;;;1.63;;
77191;SDS011;66172;48.526;8.078;2023-01-08T00:38:51;7.07;;;1.87;;
77191;SDS011;66172;48.526;8.078;2023-01-08T00:41:17;5.22;;;1.75;;
77191;SDS011;66172;48.526;8.078;2023-01-08T00:43:43;4.60;;;1.50;;
77191;SDS011;66172;48.526;8.078;2023-01-08T00:46:09;7.97;;;2.13;;
77191;SDS011;66172;48.526;8.078;2023-01-08T00:48:34;5.70;;;1.77;;
77191;SDS011;66172;48.526;8.078;2023-01-08T00:51:03;6.00;;;1.65;;
77191;SDS011;66172;48.526;8.078;2023-01-08T00:53:30;8.07;;;2.53;;
77191;SDS011;66172;48.526;8.078;2023-01-08T00:56:03;6.63;;;1.80;;
77191;SDS011;66172;48.526;8.078;2023-01-08T00:58:31;6.63;;;2.20;;
77191;SDS011;66172;48.526;8.078;2023-01-08T01:00:57;5.65;;;1.90;;
77191;SDS011;66172;48.526;8.078;2023-01-08T01:03:23;5.95;;;1.95;;
77191;SDS011;66172;48.526;8.078;2023-01-08T01:05:49;5.27;;;2.10;;
77191;SDS011;66172;48.526;8.078;2023-01-08T01:08:15;5.40;;;2.00;;
77191;SDS011;66172;48.526;8.078;2023-01-08T01:10:41;5.38;;;1.88;;
77191;SDS011;66172;48.526;8.078;2023-01-08T01:13:07;6.40;;;1.60;;
77191;SDS011;66172;48.526;8.078;2023-01-08T01:15:33;4.90;;;1.40;;
77191;SDS011;66172;48.526;8.078;2023-01-08T01:17:59;5.10;;;1.27;;
77191;SDS011;66172;48.526;8.078;2023-01-08T01:20:25;7.63;;;1.42;;
77191;SDS011;66172;48.526;8.078;2023-01-08T01:22:51;6.00;;;1.48;;
77191;SDS011;66172;48.526;8.078;2023-01-08T01:25:17;6.33;;;1.70;;
77191;SDS011;66172;48.526;8.078;2023-01-08T01:27:43;4.82;;;1.33;;
77191;SDS011;66172;48.526;8.078;2023-01-08T01:30:09;5.85;;;1.17;;
77191;SDS011;66172;48.526;8.078;2023-01-08T01:32:35;4.60;;;1.50;;
77191;SDS011;66172;48.526;8.078;2023-01-08T01:35:01;5.83;;;1.73;;
77191;SDS011;66172;48.526;8.078;2023-01-08T01:37:28;6.53;;;1.50;;
77191;SDS011;66172;48.526;8.078;2023-01-08T01:39:53;5.03;;;1.50;;
77191;SDS011;66172;48.526;8.078;2023-01-08T01:42:20;6.68;;;1.40;;
77191;SDS011;66172;48.526;8.078;2023-01-08T01:45:17;5.47;;;1.40;;
77191;SDS011;66172;48.526;8.078;2023-01-08T01:47:48;4.78;;;1.15;;
77191;SDS011;66172;48.526;8.078;2023-01-08T01:53:11;4.75;;;1.40;;
77191;SDS011;66172;48.526;8.078;2023-01-08T01:55:41;6.20;;;1.38;;
77191;SDS011;66172;48.526;8.078;2023-01-08T01:58:12;5.27;;;1.30;;
77191;SDS011;66172;48.526;8.078;2023-01-08T02:00:40;6.20;;;1.15;;
77191;SDS011;66172;48.526;8.078;2023-01-08T02:03:08;4.57;;;1.38;;
77191;SDS011;66172;48.526;8.078;2023-01-08T02:05:37;5.13;;;1.40;;
77191;SDS011;66172;48.526;8.078;2023-01-08T02:08:11;5.35;;;1.60;;
77191;SDS011;66172;48.526;8.078;2023-01-08T02:10:47;4.33;;;1.10;;
77191;SDS011;66172;48.526;8.078;2023-01-08T02:13:32;5.13;;;1.20;;
77191;SDS011;66172;48.526;8.078;2023-01-08T02:16:12;5.50;;;1.30;;
77191;SDS011;66172;48.526;8.078;2023-01-08T02:21:08;5.23;;;1.17;;
77191;SDS011;66172;48.526;8.078;2023-01-08T02:24:42;4.82;;;1.08;;
77191;SDS011;66172;48.526;8.078;2023-01-08T02:26:38;5.22;;;1.33;;
77191;SDS011;66172;48.526;8.078;2023-01-08T02:29:08;4.50;;;1.25;;
77191;SDS011;66172;48.526;8.078;2023-01-08T02:31:38;5.00;;;1.20;;
77191;SDS011;66172;48.526;8.078;2023-01-08T02:34:06;5.37;;;1.20;;
77191;SDS011;66172;48.526;8.078;2023-01-08T02:47:25;5.10;;;1.13;;
77191;SDS011;66172;48.526;8.078;2023-01-08T02:49:54;4.00;;;1.00;;
77191;SDS011;66172;48.526;8.078;2023-01-08T02:52:27;4.78;;;1.17;;
77191;SDS011;66172;48.526;8.078;2023-01-08T02:54:58;4.22;;;1.20;;
77191;SDS011;66172;48.526;8.078;2023-01-08T02:57:27;4.80;;;1.42;;
77191;SDS011;66172;48.526;8.078;2023-01-08T02:59:55;6.60;;;1.50;;
77191;SDS011;66172;48.526;8.078;2023-01-08T03:02:22;5.35;;;1.00;;
77191;SDS011;66172;48.526;8.078;2023-01-08T03:04:52;5.05;;;1.35;;
77191;SDS011;66172;48.526;8.078;2023-01-08T03:07:22;5.47;;;1.50;;
77191;SDS011;66172;48.526;8.078;2023-01-08T03:09:48;5.03;;;1.70;;
77191;SDS011;66172;48.526;8.078;2023-01-08T03:12:16;4.07;;;1.10;;
77191;SDS011;66172;48.526;8.078;2023-01-08T03:14:53;4.68;;;1.65;;
77191;SDS011;66172;48.526;8.078;2023-01-08T03:17:33;6.00;;;1.60;;
77191;SDS011;66172;48.526;8.078;2023-01-08T03:20:06;4.95;;;1.40;;
77191;SDS011;66172;48.526;8.078;2023-01-08T03:22:37;4.53;;;1.37;;
77191;SDS011;66172;48.526;8.078;2023-01-08T03:25:05;5.13;;;1.15;;
77191;SDS011;66172;48.526;8.078;2023-01-08T03:27:34;4.50;;;1.20;;
77191;SDS011;66172;48.526;8.078;2023-01-08T03:30:04;5.07;;;1.20;;
77191;SDS011;66172;48.526;8.078;2023-01-08T03:32:32;4.15;;;1.30;;
77191;SDS011;66172;48.526;8.078;2023-01-08T03:34:59;4.13;;;1.30;;
77191;SDS011;66172;48.526;8.078;2023-01-08T03:37:28;5.57;;;1.48;;
77191;SDS011;66172;48.526;8.078;2023-01-08T03:42:24;5.35;;;1.20;;
77191;SDS011;66172;48.526;8.078;2023-01-08T03:44:51;5.17;;;1.30;;
77191;SDS011;66172;48.526;8.078;2023-01-08T03:47:17;4.63;;;1.38;;
77191;SDS011;66172;48.526;8.078;2023-01-08T03:49:45;6.28;;;1.17;;
77191;SDS011;66172;48.526;8.078;2023-01-08T03:52:26;5.82;;;1.40;;
77191;SDS011;66172;48.526;8.078;2023-01-08T03:54:54;3.78;;;0.93;;
77191;SDS011;66172;48.526;8.078;2023-01-08T03:57:21;4.43;;;1.80;;
77191;SDS011;66172;48.526;8.078;2023-01-08T03:59:47;4.90;;;1.30;;
77191;SDS011;66172;48.526;8.078;2023-01-08T04:02:13;4.65;;;1.20;;
77191;SDS011;66172;48.526;8.078;2023-01-08T04:04:39;5.10;;;1.40;;
77191;SDS011;66172;48.526;8.078;2023-01-08T04:07:05;5.13;;;1.50;;
77191;SDS011;66172;48.526;8.078;2023-01-08T04:09:32;5.37;;;1.50;;
77191;SDS011;66172;48.526;8.078;2023-01-08T04:11:58;4.47;;;0.90;;
77191;SDS011;66172;48.526;8.078;2023-01-08T04:14:24;4.78;;;1.10;;
77191;SDS011;66172;48.526;8.078;2023-01-08T04:16:50;5.77;;;1.33;;
77191;SDS011;66172;48.526;8.078;2023-01-08T04:19:15;6.38;;;1.20;;
77191;SDS011;66172;48.526;8.078;2023-01-08T04:21:41;5.72;;;1.65;;
77191;SDS011;66172;48.526;8.078;2023-01-08T04:24:07;5.13;;;1.53;;
77191;SDS011;66172;48.526;8.078;2023-01-08T04:26:34;4.40;;;1.40;;
77191;SDS011;66172;48.526;8.078;2023-01-08T04:29:03;6.35;;;1.40;;
77191;SDS011;66172;48.526;8.078;2023-01-08T04:31:29;4.93;;;1.27;;
77191;SDS011;66172;48.526;8.078;2023-01-08T04:33:56;5.43;;;1.60;;
77191;SDS011;66172;48.526;8.078;2023-01-08T04:36:21;4.37;;;1.10;;
77191;SDS011;66172;48.526;8.078;2023-01-08T04:38:47;4.57;;;1.20;;
77191;SDS011;66172;48.526;8.078;2023-01-08T04:41:13;5.60;;;1.40;;
77191;SDS011;66172;48.526;8.078;2023-01-08T04:43:39;6.27;;;1.40;;
77191;SDS011;66172;48.526;8.078;2023-01-08T04:46:05;5.63;;;1.20;;
77191;SDS011;66172;48.526;8.078;2023-01-08T04:48:32;5.68;;;1.10;;
77191;SDS011;66172;48.526;8.078;2023-01-08T04:50:58;4.15;;;1.08;;
77191;SDS011;66172;48.526;8.078;2023-01-08T04:53:25;5.10;;;1.10;;
77191;SDS011;66172;48.526;8.078;2023-01-08T04:55:51;4.50;;;1.27;;
77191;SDS011;66172;48.526;8.078;2023-01-08T04:58:17;4.30;;;0.98;;
77191;SDS011;66172;48.526;8.078;2023-01-08T05:00:43;5.80;;;1.35;;
77191;SDS011;66172;48.526;8.078;2023-01-08T05:03:09;4.23;;;0.90;;
77191;SDS011;66172;48.526;8.078;2023-01-08T05:05:35;3.63;;;0.90;;
77191;SDS011;66172;48.526;8.078;2023-01-08T05:08:01;4.45;;;1.10;;
77191;SDS011;66172;48.526;8.078;2023-01-08T05:10:27;3.92;;;1.00;;
77191;SDS011;66172;48.526;8.078;2023-01-08T05:12:56;4.43;;;0.90;;
77191;SDS011;66172;48.526;8.078;2023-01-08T05:15:23;3.70;;;0.90;;
77191;SDS011;66172;48.526;8.078;2023-01-08T05:17:56;3.90;;;0.82;;
77191;SDS011;66172;48.526;8.078;2023-01-08T05:20:22;3.95;;;1.00;;
77191;SDS011;66172;48.526;8.078;2023-01-08T05:22:48;5.33;;;1.03;;
77191;SDS011;66172;48.526;8.078;2023-01-08T05:25:14;3.90;;;1.10;;
77191;SDS011;66172;48.526;8.078;2023-01-08T05:27:40;4.82;;;1.33;;
77191;SDS011;66172;48.526;8.078;2023-01-08T05:30:06;4.97;;;1.03;;
77191;SDS011;66172;48.526;8.078;2023-01-08T05:32:32;3.38;;;0.80;;
77191;SDS011;66172;48.526;8.078;2023-01-08T05:34:58;3.55;;;0.77;;
77191;SDS011;66172;48.526;8.078;2023-01-08T05:37:24;5.47;;;0.90;;
77191;SDS011;66172;48.526;8.078;2023-01-08T05:39:50;3.93;;;0.90;;
77191;SDS011;66172;48.526;8.078;2023-01-08T05:42:16;4.13;;;0.80;;
77191;SDS011;66172;48.526;8.078;2023-01-08T05:44:42;5.32;;;1.08;;
77191;SDS011;66172;48.526;8.078;2023-01-08T05:47:07;5.00;;;1.10;;
77191;SDS011;66172;48.526;8.078;2023-01-08T05:49:33;4.07;;;0.98;;
77191;SDS011;66172;48.526;8.078;2023-01-08T05:51:59;5.13;;;1.20;;
77191;SDS011;66172;48.526;8.078;2023-01-08T05:54:25;3.78;;;1.10;;
77191;SDS011;66172;48.526;8.078;2023-01-08T05:56:51;3.90;;;0.90;;
77191;SDS011;66172;48.526;8.078;2023-01-08T05:59:17;5.05;;;1.00;;
77191;SDS011;66172;48.526;8.078;2023-01-08T06:01:43;4.80;;;0.93;;
77191;SDS011;66172;48.526;8.078;2023-01-08T06:04:08;4.27;;;0.90;;
77191;SDS011;66172;48.526;8.078;2023-01-08T06:06:34;3.67;;;1.00;;
77191;SDS011;66172;48.526;8.078;2023-01-08T06:09:00;4.55;;;1.00;;
77191;SDS011;66172;48.526;8.078;2023-01-08T06:11:26;5.67;;;1.20;;
77191;SDS011;66172;48.526;8.078;2023-01-08T06:13:52;4.90;;;1.10;;
77191;SDS011;66172;48.526;8.078;2023-01-08T06:16:18;3.78;;;1.08;;
77191;SDS011;66172;48.526;8.078;2023-01-08T06:18:45;4.68;;;1.05;;
77191;SDS011;66172;48.526;8.078;2023-01-08T06:21:11;3.60;;;0.90;;
77191;SDS011;66172;48.526;8.078;2023-01-08T06:23:38;4.40;;;1.10;;
77191;SDS011;66172;48.526;8.078;2023-01-08T06:26:04;4.57;;;1.45;;
77191;SDS011;66172;48.526;8.078;2023-01-08T06:28:30;4.18;;;0.98;;
77191;SDS011;66172;48.526;8.078;2023-01-08T06:30:57;4.20;;;1.35;;
77191;SDS011;66172;48.526;8.078;2023-01-08T06:33:24;5.43;;;1.40;;
77191;SDS011;66172;48.526;8.078;2023-01-08T06:35:50;4.15;;;1.08;;
77191;SDS011;66172;48.526;8.078;2023-01-08T06:38:16;4.57;;;1.13;;
77191;SDS011;66172;48.526;8.078;2023-01-08T06:40:45;6.50;;;1.30;;
77191;SDS011;66172;48.526;8.078;2023-01-08T06:43:12;3.63;;;1.00;;
77191;SDS011;66172;48.526;8.078;2023-01-08T06:45:38;4.50;;;1.38;;
77191;SDS011;66172;48.526;8.078;2023-01-08T06:48:04;4.68;;;1.27;;
77191;SDS011;66172;48.526;8.078;2023-01-08T06:50:31;4.28;;;0.95;;
77191;SDS011;66172;48.526;8.078;2023-01-08T06:52:58;6.30;;;1.88;;
77191;SDS011;66172;48.526;8.078;2023-01-08T06:55:25;4.73;;;1.40;;
77191;SDS011;66172;48.526;8.078;2023-01-08T06:57:57;4.55;;;1.20;;
77191;SDS011;66172;48.526;8.078;2023-01-08T07:00:24;3.70;;;0.98;;
77191;SDS011;66172;48.526;8.078;2023-01-08T07:02:52;4.70;;;1.20;;
77191;SDS011;66172;48.526;8.078;2023-01-08T07:05:18;5.20;;;1.00;;
77191;SDS011;66172;48.526;8.078;2023-01-08T07:07:44;4.93;;;0.80;;
77191;SDS011;66172;48.526;8.078;2023-01-08T07:10:10;4.07;;;0.90;;
77191;SDS011;66172;48.526;8.078;2023-01-08T07:12:36;4.47;;;1.27;;
77191;SDS011;66172;48.526;8.078;2023-01-08T07:15:02;3.80;;;0.60;;
77191;SDS011;66172;48.526;8.078;2023-01-08T07:17:30;3.27;;;0.60;;
77191;SDS011;66172;48.526;8.078;2023-01-08T07:19:56;3.40;;;0.63;;
77191;SDS011;66172;48.526;8.078;2023-01-08T07:22:22;3.95;;;0.75;;
77191;SDS011;66172;48.526;8.078;2023-01-08T07:24:52;3.10;;;0.60;;
77191;SDS011;66172;48.526;8.078;2023-01-08T07:27:18;3.40;;;0.60;;
77191;SDS011;66172;48.526;8.078;2023-01-08T07:29:44;3.47;;;0.65;;
77191;SDS011;66172;48.526;8.078;2023-01-08T07:32:10;3.60;;;0.70;;
77191;SDS011;66172;48.526;8.078;2023-01-08T07:34:36;3.13;;;0.63;;
77191;SDS011;66172;48.526;8.078;2023-01-08T07:37:02;4.13;;;0.90;;
77191;SDS011;66172;48.526;8.078;2023-01-08T07:39:28;3.53;;;0.70;;
77191;SDS011;66172;48.526;8.078;2023-01-08T07:41:55;4.43;;;0.60;;
77191;SDS011;66172;48.526;8.078;2023-01-08T07:44:20;3.90;;;0.70;;
77191;SDS011;66172;48.526;8.078;2023-01-08T07:46:46;2.97;;;0.70;;
77191;SDS011;66172;48.526;8.078;2023-01-08T07:49:12;3.42;;;0.50;;
77191;SDS011;66172;48.526;8.078;2023-01-08T07:51:38;4.47;;;0.60;;
77191;SDS011;66172;48.526;8.078;2023-01-08T07:54:04;3.23;;;0.70;;
77191;SDS011;66172;48.526;8.078;2023-01-08T07:56:30;3.65;;;0.70;;
77191;SDS011;66172;48.526;8.078;2023-01-08T07:58:56;2.80;;;0.50;;
77191;SDS011;66172;48.526;8.078;2023-01-08T08:01:22;4.00;;;0.50;;
77191;SDS011;66172;48.526;8.078;2023-01-08T08:03:48;8.23;;;2.85;;
77191;SDS011;66172;48.526;8.078;2023-01-08T08:06:14;5.95;;;1.88;;
77191;SDS011;66172;48.526;8.078;2023-01-08T08:08:40;5.25;;;0.95;;
77191;SDS011;66172;48.526;8.078;2023-01-08T08:11:06;3.43;;;0.50;;
77191;SDS011;66172;48.526;8.078;2023-01-08T08:13:32;4.07;;;0.90;;
77191;SDS011;66172;48.526;8.078;2023-01-08T08:16:01;3.08;;;0.68;;
77191;SDS011;66172;48.526;8.078;2023-01-08T08:18:28;3.55;;;0.68;;
77191;SDS011;66172;48.526;8.078;2023-01-08T08:20:54;4.27;;;0.73;;
77191;SDS011;66172;48.526;8.078;2023-01-08T08:23:20;4.07;;;1.30;;
77191;SDS011;66172;48.526;8.078;2023-01-08T08:25:46;3.55;;;0.93;;
77191;SDS011;66172;48.526;8.078;2023-01-08T08:28:11;2.83;;;0.50;;
77191;SDS011;66172;48.526;8.078;2023-01-08T08:30:38;4.10;;;0.85;;
77191;SDS011;66172;48.526;8.078;2023-01-08T08:33:04;4.60;;;1.50;;
77191;SDS011;66172;48.526;8.078;2023-01-08T08:35:31;3.50;;;0.70;;
77191;SDS011;66172;48.526;8.078;2023-01-08T08:37:58;3.63;;;0.57;;
77191;SDS011;66172;48.526;8.078;2023-01-08T08:40:25;4.23;;;0.60;;
77191;SDS011;66172;48.526;8.078;2023-01-08T08:43:01;3.25;;;0.40;;
77191;SDS011;66172;48.526;8.078;2023-01-08T08:45:28;3.92;;;1.13;;
77191;SDS011;66172;48.526;8.078;2023-01-08T08:47:55;4.50;;;0.80;;
77191;SDS011;66172;48.526;8.078;2023-01-08T08:50:20;4.87;;;1.03;;
77191;SDS011;66172;48.526;8.078;2023-01-08T08:52:47;5.05;;;1.48;;
77191;SDS011;66172;48.526;8.078;2023-01-08T08:55:13;4.40;;;0.70;;
77191;SDS011;66172;48.526;8.078;2023-01-08T08:57:43;3.30;;;0.40;;
77191;SDS011;66172;48.526;8.078;2023-01-08T09:00:11;2.75;;;0.47;;
77191;SDS011;66172;48.526;8.078;2023-01-08T09:02:38;3.63;;;0.77;;
77191;SDS011;66172;48.526;8.078;2023-01-08T09:05:04;3.83;;;0.50;;
77191;SDS011;66172;48.526;8.078;2023-01-08T09:07:31;6.00;;;1.50;;
77191;SDS011;66172;48.526;8.078;2023-01-08T09:09:57;3.30;;;0.70;;
77191;SDS011;66172;48.526;8.078;2023-01-08T09:12:23;3.23;;;0.70;;
77191;SDS011;66172;48.526;8.078;2023-01-08T09:14:48;3.63;;;0.82;;
77191;SDS011;66172;48.526;8.078;2023-01-08T09:17:16;3.40;;;0.43;;
77191;SDS011;66172;48.526;8.078;2023-01-08T09:19:42;3.15;;;0.55;;
77191;SDS011;66172;48.526;8.078;2023-01-08T09:22:08;3.93;;;0.90;;
77191;SDS011;66172;48.526;8.078;2023-01-08T09:24:34;3.50;;;0.73;;
77191;SDS011;66172;48.526;8.078;2023-01-08T09:26:59;2.60;;;0.30;;
77191;SDS011;66172;48.526;8.078;2023-01-08T09:29:25;3.43;;;0.50;;
77191;SDS011;66172;48.526;8.078;2023-01-08T09:31:51;3.50;;;0.80;;
77191;SDS011;66172;48.526;8.078;2023-01-08T09:34:17;2.75;;;0.50;;
77191;SDS011;66172;48.526;8.078;2023-01-08T09:36:43;4.43;;;1.52;;
77191;SDS011;66172;48.526;8.078;2023-01-08T09:39:09;3.37;;;0.67;;
77191;SDS011;66172;48.526;8.078;2023-01-08T09:41:37;3.95;;;0.63;;
77191;SDS011;66172;48.526;8.078;2023-01-08T09:44:06;4.05;;;0.98;;
77191;SDS011;66172;48.526;8.078;2023-01-08T09:46:40;4.25;;;1.60;;
77191;SDS011;66172;48.526;8.078;2023-01-08T09:49:06;4.50;;;1.07;;
77191;SDS011;66172;48.526;8.078;2023-01-08T09:51:38;4.35;;;1.20;;
77191;SDS011;66172;48.526;8.078;2023-01-08T09:54:05;5.93;;;2.03;;
77191;SDS011;66172;48.526;8.078;2023-01-08T09:56:32;4.15;;;1.20;;
77191;SDS011;66172;48.526;8.078;2023-01-08T09:59:00;4.80;;;1.63;;
77191;SDS011;66172;48.526;8.078;2023-01-08T10:01:29;3.97;;;0.90;;
77191;SDS011;66172;48.526;8.078;2023-01-08T10:04:13;6.05;;;1.23;;
77191;SDS011;66172;48.526;8.078;2023-01-08T10:06:49;4.65;;;1.40;;
77191;SDS011;66172;48.526;8.078;2023-01-08T10:09:18;3.50;;;0.98;;
77191;SDS011;66172;48.526;8.078;2023-01-08T10:11:48;4.00;;;1.00;;
77191;SDS011;66172;48.526;8.078;2023-01-08T10:14:19;4.77;;;0.73;;
77191;SDS011;66172;48.526;8.078;2023-01-08T10:16:52;3.70;;;0.88;;
77191;SDS011;66172;48.526;8.078;2023-01-08T10:19:29;3.30;;;0.70;;
77191;SDS011;66172;48.526;8.078;2023-01-08T10:21:55;3.30;;;0.70;;
77191;SDS011;66172;48.526;8.078;2023-01-08T10:24:34;3.75;;;0.80;;
77191;SDS011;66172;48.526;8.078;2023-01-08T10:27:22;5.20;;;1.07;;
77191;SDS011;66172;48.526;8.078;2023-01-08T10:29:48;3.90;;;0.77;;
77191;SDS011;66172;48.526;8.078;2023-01-08T10:34:44;3.40;;;0.57;;
77191;SDS011;66172;48.526;8.078;2023-01-08T10:37:27;3.60;;;0.82;;
77191;SDS011;66172;48.526;8.078;2023-01-08T10:40:07;3.20;;;0.40;;
77191;SDS011;66172;48.526;8.078;2023-01-08T10:42:46;3.17;;;0.30;;
77191;SDS011;66172;48.526;8.078;2023-01-08T10:45:18;2.83;;;0.30;;
77191;SDS011;66172;48.526;8.078;2023-01-08T10:47:47;3.05;;;0.47;;
77191;SDS011;66172;48.526;8.078;2023-01-08T10:50:23;4.90;;;0.90;;
77191;SDS011;66172;48.526;8.078;2023-01-08T10:52:56;2.40;;;0.40;;
77191;SDS011;66172;48.526;8.078;2023-01-08T10:57:53;2.65;;;0.20;;
77191;SDS011;66172;48.526;8.078;2023-01-08T11:00:29;3.58;;;0.50;;
77191;SDS011;66172;48.526;8.078;2023-01-08T11:03:00;4.15;;;0.75;;
77191;SDS011;66172;48.526;8.078;2023-01-08T11:05:29;2.63;;;0.40;;
77191;SDS011;66172;48.526;8.078;2023-01-08T11:08:00;2.55;;;0.30;;
77191;SDS011;66172;48.526;8.078;2023-01-08T11:10:30;3.05;;;0.40;;
77191;SDS011;66172;48.526;8.078;2023-01-08T11:12:59;3.85;;;0.50;;
77191;SDS011;66172;48.526;8.078;2023-01-08T11:15:29;2.53;;;0.30;;
77191;SDS011;66172;48.526;8.078;2023-01-08T11:20:47;4.03;;;0.80;;
77191;SDS011;66172;48.526;8.078;2023-01-08T11:23:15;4.57;;;1.30;;
77191;SDS011;66172;48.526;8.078;2023-01-08T11:26:09;4.15;;;1.55;;
77191;SDS011;66172;48.526;8.078;2023-01-08T11:31:16;2.97;;;0.50;;
77191;SDS011;66172;48.526;8.078;2023-01-08T11:33:46;4.32;;;1.05;;
77191;SDS011;66172;48.526;8.078;2023-01-08T11:36:43;3.63;;;0.80;;
77191;SDS011;66172;48.526;8.078;2023-01-08T11:39:11;3.25;;;0.45;;
77191;SDS011;66172;48.526;8.078;2023-01-08T11:44:37;2.40;;;0.30;;
77191;SDS011;66172;48.526;8.078;2023-01-08T11:47:20;3.13;;;0.55;;
77191;SDS011;66172;48.526;8.078;2023-01-08T11:50:14;3.35;;;0.70;;
77191;SDS011;66172;48.526;8.078;2023-01-08T11:58:46;3.63;;;0.80;;
77191;SDS011;66172;48.526;8.078;2023-01-08T12:09:42;2.33;;;0.30;;
77191;SDS011;66172;48.526;8.078;2023-01-08T12:12:38;2.87;;;0.30;;
77191;SDS011;66172;48.526;8.078;2023-01-08T12:20:30;2.05;;;0.20;;
77191;SDS011;66172;48.526;8.078;2023-01-08T12:31:36;1.98;;;0.25;;
77191;SDS011;66172;48.526;8.078;2023-01-08T12:34:18;1.35;;;0.20;;
77191;SDS011;66172;48.526;8.078;2023-01-08T12:42:57;2.70;;;0.40;;
77191;SDS011;66172;48.526;8.078;2023-01-08T12:45:26;2.05;;;0.40;;
77191;SDS011;66172;48.526;8.078;2023-01-08T12:47:58;2.17;;;0.30;;
77191;SDS011;66172;48.526;8.078;2023-01-08T13:01:36;2.22;;;0.30;;
77191;SDS011;66172;48.526;8.078;2023-01-08T13:04:08;3.70;;;0.80;;
77191;SDS011;66172;48.526;8.078;2023-01-08T13:06:35;1.60;;;0.20;;
77191;SDS011;66172;48.526;8.078;2023-01-08T13:09:01;2.75;;;0.35;;
77191;SDS011;66172;48.526;8.078;2023-01-08T13:11:32;2.97;;;0.45;;
77191;SDS011;66172;48.526;8.078;2023-01-08T13:14:05;2.05;;;0.22;;
77191;SDS011;66172;48.526;8.078;2023-01-08T13:16:37;2.75;;;0.38;;
77191;SDS011;66172;48.526;8.078;2023-01-08T13:19:05;1.83;;;0.20;;
77191;SDS011;66172;48.526;8.078;2023-01-08T13:21:49;2.53;;;0.40;;
77191;SDS011;66172;48.526;8.078;2023-01-08T13:29:54;1.67;;;0.20;;
77191;SDS011;66172;48.526;8.078;2023-01-08T13:32:33;2.13;;;0.20;;
77191;SDS011;66172;48.526;8.078;2023-01-08T13:37:45;2.30;;;0.20;;
77191;SDS011;66172;48.526;8.078;2023-01-08T13:43:13;2.33;;;0.30;;
77191;SDS011;66172;48.526;8.078;2023-01-08T13:45:40;2.13;;;0.40;;
77191;SDS011;66172;48.526;8.078;2023-01-08T13:48:19;1.83;;;0.20;;
77191;SDS011;66172;48.526;8.078;2023-01-08T13:50:46;2.20;;;0.30;;
77191;SDS011;66172;48.526;8.078;2023-01-08T13:53:12;2.15;;;0.30;;
77191;SDS011;66172;48.526;8.078;2023-01-08T13:55:40;3.08;;;0.45;;
77191;SDS011;66172;48.526;8.078;2023-01-08T13:58:13;2.77;;;0.33;;
77191;SDS011;66172;48.526;8.078;2023-01-08T14:00:44;2.35;;;0.30;;
77191;SDS011;66172;48.526;8.078;2023-01-08T14:06:04;1.98;;;0.20;;
77191;SDS011;66172;48.526;8.078;2023-01-08T14:08:50;3.28;;;0.50;;
77191;SDS011;66172;48.526;8.078;2023-01-08T14:11:17;2.90;;;0.40;;
77191;SDS011;66172;48.526;8.078;2023-01-08T14:13:45;3.15;;;0.50;;
77191;SDS011;66172;48.526;8.078;2023-01-08T14:16:12;4.25;;;0.95;;
77191;SDS011;66172;48.526;8.078;2023-01-08T14:18:40;4.65;;;1.05;;
77191;SDS011;66172;48.526;8.078;2023-01-08T14:21:10;2.17;;;0.30;;
77191;SDS011;66172;48.526;8.078;2023-01-08T14:23:39;2.10;;;0.30;;
77191;SDS011;66172;48.526;8.078;2023-01-08T14:26:07;8.68;;;3.47;;
77191;SDS011;66172;48.526;8.078;2023-01-08T14:28:52;4.38;;;1.05;;
77191;SDS011;66172;48.526;8.078;2023-01-08T14:31:23;5.82;;;1.90;;
77191;SDS011;66172;48.526;8.078;2023-01-08T14:33:51;5.70;;;1.13;;
77191;SDS011;66172;48.526;8.078;2023-01-08T14:36:18;4.70;;;0.90;;
77191;SDS011;66172;48.526;8.078;2023-01-08T14:38:45;5.57;;;1.40;;
77191;SDS011;66172;48.526;8.078;2023-01-08T14:41:36;3.92;;;1.00;;
77191;SDS011;66172;48.526;8.078;2023-01-08T14:44:21;3.30;;;0.47;;
77191;SDS011;66172;48.526;8.078;2023-01-08T14:46:50;3.55;;;0.80;;
77191;SDS011;66172;48.526;8.078;2023-01-08T14:49:21;3.20;;;0.50;;
77191;SDS011;66172;48.526;8.078;2023-01-08T14:51:50;2.35;;;0.32;;
77191;SDS011;66172;48.526;8.078;2023-01-08T14:54:18;3.53;;;0.65;;
77191;SDS011;66172;48.526;8.078;2023-01-08T14:56:48;7.38;;;2.40;;
77191;SDS011;66172;48.526;8.078;2023-01-08T14:59:18;4.65;;;1.48;;
77191;SDS011;66172;48.526;8.078;2023-01-08T15:01:50;4.60;;;1.57;;
77191;SDS011;66172;48.526;8.078;2023-01-08T15:04:19;4.13;;;0.90;;
77191;SDS011;66172;48.526;8.078;2023-01-08T15:06:45;4.05;;;1.00;;
77191;SDS011;66172;48.526;8.078;2023-01-08T15:11:55;3.30;;;0.70;;
77191;SDS011;66172;48.526;8.078;2023-01-08T15:14:26;4.10;;;0.90;;
77191;SDS011;66172;48.526;8.078;2023-01-08T15:16:56;5.53;;;1.70;;
77191;SDS011;66172;48.526;8.078;2023-01-08T15:19:25;18.35;;;6.13;;
77191;SDS011;66172;48.526;8.078;2023-01-08T15:21:54;13.27;;;6.85;;
77191;SDS011;66172;48.526;8.078;2023-01-08T15:24:32;10.90;;;5.75;;
77191;SDS011;66172;48.526;8.078;2023-01-08T15:27:01;5.73;;;1.80;;
77191;SDS011;66172;48.526;8.078;2023-01-08T15:29:36;7.93;;;3.70;;
77191;SDS011;66172;48.526;8.078;2023-01-08T15:32:18;8.45;;;3.08;;
77191;SDS011;66172;48.526;8.078;2023-01-08T15:34:49;4.88;;;1.60;;
77191;SDS011;66172;48.526;8.078;2023-01-08T15:37:15;6.63;;;1.30;;
77191;SDS011;66172;48.526;8.078;2023-01-08T15:39:41;3.85;;;0.73;;
77191;SDS011;66172;48.526;8.078;2023-01-08T15:42:17;3.88;;;0.82;;
77191;SDS011;66172;48.526;8.078;2023-01-08T15:45:04;4.90;;;1.90;;
77191;SDS011;66172;48.526;8.078;2023-01-08T15:47:36;6.10;;;2.00;;
77191;SDS011;66172;48.526;8.078;2023-01-08T15:50:02;5.33;;;1.83;;
77191;SDS011;66172;48.526;8.078;2023-01-08T15:52:28;5.82;;;1.48;;
77191;SDS011;66172;48.526;8.078;2023-01-08T15:54:57;4.50;;;1.38;;
77191;SDS011;66172;48.526;8.078;2023-01-08T15:57:24;5.57;;;1.88;;
77191;SDS011;66172;48.526;8.078;2023-01-08T15:59:50;4.67;;;1.10;;
77191;SDS011;66172;48.526;8.078;2023-01-08T16:02:17;4.55;;;1.20;;
77191;SDS011;66172;48.526;8.078;2023-01-08T16:04:43;4.57;;;1.30;;
77191;SDS011;66172;48.526;8.078;2023-01-08T16:07:09;4.43;;;1.23;;
77191;SDS011;66172;48.526;8.078;2023-01-08T16:09:35;5.30;;;1.97;;
77191;SDS011;66172;48.526;8.078;2023-01-08T16:12:00;5.93;;;2.90;;
77191;SDS011;66172;48.526;8.078;2023-01-08T16:14:26;6.63;;;3.08;;
77191;SDS011;66172;48.526;8.078;2023-01-08T16:16:54;4.53;;;1.20;;
77191;SDS011;66172;48.526;8.078;2023-01-08T16:19:20;9.47;;;3.40;;
77191;SDS011;66172;48.526;8.078;2023-01-08T16:21:46;7.88;;;3.30;;
77191;SDS011;66172;48.526;8.078;2023-01-08T16:24:14;5.95;;;2.80;;
77191;SDS011;66172;48.526;8.078;2023-01-08T16:26:40;5.10;;;1.77;;
77191;SDS011;66172;48.526;8.078;2023-01-08T16:29:06;11.50;;;4.70;;
77191;SDS011;66172;48.526;8.078;2023-01-08T16:31:32;31.00;;;13.30;;
77191;SDS011;66172;48.526;8.078;2023-01-08T16:34:01;27.50;;;12.38;;